Time;durP1;ratioP1;P1;durP2;ratioP2;P2;SDS_P1;SDS_P2;PMS_P1;PMS_P2;Temp;Humidity;BMP_temperature;BMP_pressure;BME280_temperature;BME280_humidity;BME280_pressure;Samples;Min_cycle;Max_cycle;Signal;HPM_P1;HPM_P2
2022/12/23 00:00:09;;;;;;;33.72;17.85;;;11.00;99.90;;;;;;5054542;28;20033;-71
2022/12/23 00:02:35;;;;;;;29.20;17.50;;;11.00;99.90;;;;;;5055158;28;20079;-72
2022/12/23 00:05:02;;;;;;;27.13;17.95;;;11.00;99.90;;;;;;5053724;28;20420;-71
2022/12/23 00:07:28;;;;;;;31.25;18.40;;;11.00;99.90;;;;;;5054669;28;20500;-72
2022/12/23 00:09:53;;;;;;;34.40;18.98;;;10.90;99.90;;;;;;5055236;28;20076;-72
2022/12/23 00:15:05;;;;;;;36.47;20.08;;;10.90;99.90;;;;;;5054433;28;20130;-72
2022/12/23 00:17:36;;;;;;;36.25;19.80;;;10.90;99.90;;;;;;5052883;28;20148;-71
2022/12/23 00:20:04;;;;;;;32.80;19.90;;;11.00;99.90;;;;;;5054752;28;20037;-71
2022/12/23 00:25:14;;;;;;;35.20;19.75;;;11.00;99.90;;;;;;5053085;28;20396;-72
2022/12/23 00:27:39;;;;;;;35.85;20.98;;;10.90;99.90;;;;;;5053130;28;20107;-71
2022/12/23 00:30:09;;;;;;;36.85;20.20;;;11.00;99.90;;;;;;5053121;28;20104;-71
2022/12/23 00:32:35;;;;;;;35.85;20.80;;;10.90;99.90;;;;;;5036780;28;20033;-72
2022/12/23 00:35:00;;;;;;;33.67;20.55;;;11.00;99.90;;;;;;5052919;28;20052;-71
2022/12/23 00:37:28;;;;;;;39.80;20.83;;;10.90;99.90;;;;;;5052816;28;20037;-71
2022/12/23 00:49:42;;;;;;;48.15;22.48;;;10.90;99.90;;;;;;4987364;28;20035;-71
2022/12/23 00:52:10;;;;;;;39.70;21.10;;;10.90;99.90;;;;;;5052574;28;20047;-71
2022/12/23 00:54:36;;;;;;;45.63;22.85;;;10.90;99.90;;;;;;5053748;28;20028;-71
2022/12/23 00:57:02;;;;;;;42.17;21.50;;;10.90;99.90;;;;;;5035352;28;20033;-71
2022/12/23 00:59:28;;;;;;;43.15;22.73;;;10.90;99.90;;;;;;5052544;28;20063;-72
2022/12/23 01:07:23;;;;;;;40.70;21.70;;;10.90;99.90;;;;;;5052534;28;20114;-72
2022/12/23 01:09:49;;;;;;;37.75;20.50;;;11.00;99.90;;;;;;5053168;28;20055;-72
2022/12/23 01:12:14;;;;;;;39.10;21.15;;;11.00;99.90;;;;;;5052583;28;20029;-72
2022/12/23 01:14:40;;;;;;;42.00;21.30;;;11.00;99.90;;;;;;5052806;28;20029;-72
2022/12/23 01:17:07;;;;;;;33.50;20.30;;;11.00;99.90;;;;;;5035842;28;20029;-71
2022/12/23 01:19:33;;;;;;;36.95;20.33;;;11.00;99.90;;;;;;5053476;28;20037;-72
2022/12/23 01:21:58;;;;;;;36.80;19.88;;;11.00;99.90;;;;;;5035602;28;20436;-73
2022/12/23 01:24:28;;;;;;;34.63;18.65;;;11.00;99.90;;;;;;5052013;28;20040;-72
2022/12/23 01:26:54;;;;;;;32.67;18.05;;;11.10;99.90;;;;;;5053773;28;20509;-72
2022/12/23 01:29:19;;;;;;;33.38;18.08;;;11.00;99.90;;;;;;5035795;28;20140;-72
2022/12/23 01:31:45;;;;;;;29.83;18.30;;;11.00;99.90;;;;;;5052372;28;20036;-72
2022/12/23 01:34:11;;;;;;;30.25;18.40;;;11.00;99.90;;;;;;5053703;28;20037;-72
2022/12/23 01:36:36;;;;;;;31.52;18.17;;;11.00;99.90;;;;;;5052650;28;20032;-72
2022/12/23 01:39:02;;;;;;;31.40;18.10;;;11.00;99.90;;;;;;5036390;28;20037;-72
2022/12/23 01:44:50;;;;;;;29.55;16.30;;;11.00;99.90;;;;;;5053618;28;20036;-72
2022/12/23 01:47:26;;;;;;;27.08;16.60;;;10.90;99.90;;;;;;5052524;28;20031;-72
2022/12/23 01:49:58;;;;;;;22.58;14.73;;;10.90;99.90;;;;;;5053243;28;20020;-72
2022/12/23 01:52:24;;;;;;;26.77;15.43;;;10.90;99.90;;;;;;5053288;28;20021;-72
2022/12/23 01:54:51;;;;;;;25.38;14.50;;;10.90;99.90;;;;;;5051932;28;20056;-72
2022/12/23 01:57:16;;;;;;;26.23;15.07;;;10.90;99.90;;;;;;5052793;28;20109;-72
2022/12/23 02:05:15;;;;;;;21.35;14.90;;;10.90;99.90;;;;;;5053431;28;20040;-72
2022/12/23 02:10:35;;;;;;;21.95;14.45;;;10.90;99.90;;;;;;5055757;28;20056;-72
2022/12/23 02:13:27;;;;;;;21.27;14.82;;;10.90;99.90;;;;;;5055654;28;20032;-71
2022/12/23 02:16:17;;;;;;;26.05;15.23;;;10.90;99.90;;;;;;5056580;28;20059;-72
2022/12/23 02:19:00;;;;;;;25.42;14.27;;;10.90;99.90;;;;;;5040864;28;20036;-72
2022/12/23 02:22:09;;;;;;;25.60;15.05;;;10.90;99.90;;;;;;5055865;28;20033;-72
2022/12/23 02:25:08;;;;;;;26.25;15.52;;;10.90;99.90;;;;;;5056159;28;20037;-72
2022/12/23 02:27:57;;;;;;;27.00;15.32;;;10.90;99.90;;;;;;5056347;28;20032;-72
2022/12/23 02:30:41;;;;;;;23.80;15.13;;;10.90;99.90;;;;;;5056655;28;20021;-72
2022/12/23 02:33:10;;;;;;;27.75;16.27;;;11.00;99.90;;;;;;5056112;28;20040;-72
2022/12/23 02:35:47;;;;;;;26.25;15.93;;;11.00;99.90;;;;;;5056171;28;20029;-72
2022/12/23 02:38:37;;;;;;;29.90;16.83;;;11.00;99.90;;;;;;5056358;28;20021;-71
2022/12/23 02:41:28;;;;;;;27.70;16.25;;;11.00;99.90;;;;;;5055723;28;20078;-71
2022/12/23 02:44:04;;;;;;;26.65;16.45;;;11.00;99.90;;;;;;5038156;28;20473;-72
2022/12/23 02:46:37;;;;;;;30.60;17.15;;;11.00;99.90;;;;;;5056353;28;20021;-72
2022/12/23 02:49:12;;;;;;;29.13;17.52;;;11.00;99.90;;;;;;5056466;28;20041;-72
2022/12/23 02:51:43;;;;;;;32.05;17.45;;;11.00;99.90;;;;;;5055190;28;20033;-72
2022/12/23 02:54:13;;;;;;;26.65;15.77;;;11.00;99.90;;;;;;5056097;28;20021;-72
2022/12/23 02:56:44;;;;;;;29.05;16.65;;;11.00;99.90;;;;;;5056025;28;20057;-72
2022/12/23 02:59:14;;;;;;;24.60;16.60;;;11.00;99.90;;;;;;5056040;28;20339;-72
2022/12/23 03:01:41;;;;;;;26.70;17.05;;;11.00;99.90;;;;;;5054784;28;20036;-71
2022/12/23 03:04:07;;;;;;;26.65;15.77;;;11.00;99.90;;;;;;5055778;28;20082;-71
2022/12/23 03:06:40;;;;;;;25.67;16.50;;;11.00;99.90;;;;;;5055653;28;20068;-72
2022/12/23 03:09:06;;;;;;;;;;;11.00;99.90;;;;;;5054938;28;20429;-72
2022/12/23 03:11:49;;;;;;;24.98;16.98;;;11.00;99.90;;;;;;5055982;28;19909;-71
2022/12/23 03:14:39;;;;;;;27.38;17.25;;;11.00;99.90;;;;;;5055806;28;20044;-72
2022/12/23 03:17:16;;;;;;;29.65;17.75;;;11.00;99.90;;;;;;5055771;28;20033;-72
2022/12/23 03:19:59;;;;;;;26.40;17.15;;;11.00;99.90;;;;;;5054890;28;20114;-72
2022/12/23 03:22:43;;;;;;;26.93;16.77;;;11.00;99.90;;;;;;5055130;28;20037;-72
2022/12/23 03:25:41;;;;;;;27.05;16.17;;;11.00;99.90;;;;;;5054463;28;20483;-72
2022/12/23 03:28:37;;;;;;;24.48;15.32;;;11.00;99.90;;;;;;4999979;28;20124;-72
2022/12/23 03:31:10;;;;;;;26.85;15.38;;;11.00;99.90;;;;;;5054126;28;20087;-72
2022/12/23 03:33:47;;;;;;;25.38;15.75;;;11.10;99.90;;;;;;5055989;28;20515;-72
2022/12/23 03:36:19;;;;;;;21.63;13.90;;;11.10;99.90;;;;;;5055411;28;20056;-72
2022/12/23 03:38:47;;;;;;;20.13;13.43;;;11.10;99.90;;;;;;5054018;28;20064;-72
2022/12/23 03:41:17;;;;;;;17.80;12.60;;;11.10;99.90;;;;;;5055249;28;20268;-72
2022/12/23 03:43:59;;;;;;;18.88;11.15;;;11.10;99.90;;;;;;5053942;28;20060;-72
2022/12/23 03:46:35;;;;;;;16.67;10.55;;;11.10;99.90;;;;;;5055452;28;20048;-72
2022/12/23 03:49:09;;;;;;;15.55;9.38;;;11.10;99.90;;;;;;5053844;28;20029;-71
2022/12/23 03:51:54;;;;;;;12.57;9.10;;;11.10;99.90;;;;;;5054961;28;20029;-72
2022/12/23 03:54:24;;;;;;;15.70;9.38;;;11.10;99.90;;;;;;5054919;28;20526;-72
2022/12/23 03:56:56;;;;;;;16.58;8.82;;;11.10;99.90;;;;;;5054585;28;20362;-72
2022/12/23 03:59:26;;;;;;;13.50;8.52;;;11.10;99.90;;;;;;5054897;28;20036;-72
2022/12/23 04:01:58;;;;;;;13.68;8.55;;;11.10;99.90;;;;;;5053795;28;20040;-72
2022/12/23 04:04:45;;;;;;;14.70;8.98;;;11.00;99.90;;;;;;5054801;28;20025;-72
2022/12/23 04:07:29;;;;;;;10.98;7.78;;;11.10;99.90;;;;;;5023774;28;20037;-72
2022/12/23 04:09:55;;;;;;;;;;;11.10;99.90;;;;;;5055691;28;20084;-72
2022/12/23 04:12:23;;;;;;;10.23;7.70;;;11.10;99.90;;;;;;5053331;28;20368;-72
2022/12/23 04:14:49;;;;;;;12.93;8.25;;;11.10;99.90;;;;;;5054564;28;20021;-73
2022/12/23 04:17:17;;;;;;;13.57;7.43;;;11.10;99.90;;;;;;5054689;28;20082;-72
2022/12/23 04:19:46;;;;;;;13.93;8.63;;;11.10;99.90;;;;;;5054090;28;20572;-73
2022/12/23 04:22:13;;;;;;;14.35;8.20;;;11.10;99.90;;;;;;5036924;28;20036;-73
2022/12/23 04:24:39;;;;;;;12.93;8.57;;;11.10;99.90;;;;;;5036576;28;20057;-72
2022/12/23 04:27:06;;;;;;;12.88;8.05;;;11.10;99.90;;;;;;5052801;28;20117;-72
2022/12/23 04:29:31;;;;;;;13.68;9.07;;;11.10;99.90;;;;;;5053474;28;20033;-73
2022/12/23 04:31:57;;;;;;;11.73;8.30;;;11.10;99.90;;;;;;5052187;28;20048;-72
2022/12/23 04:34:23;;;;;;;13.73;8.13;;;11.10;99.90;;;;;;5054230;28;20033;-72
2022/12/23 04:36:48;;;;;;;13.25;7.90;;;11.10;99.90;;;;;;5053919;28;20025;-72
2022/12/23 04:39:14;;;;;;;9.60;7.70;;;11.10;99.90;;;;;;5053771;28;20084;-72
2022/12/23 04:41:40;;;;;;;11.65;8.05;;;11.10;99.90;;;;;;5053753;28;20029;-71
2022/12/23 04:44:06;;;;;;;11.45;7.90;;;11.10;99.90;;;;;;5054048;28;20025;-71
2022/12/23 04:46:31;;;;;;;10.00;7.68;;;11.20;99.90;;;;;;5054465;28;20025;-72
2022/12/23 04:48:57;;;;;;;9.43;7.45;;;11.10;99.90;;;;;;5054403;28;20037;-72
2022/12/23 04:51:23;;;;;;;9.35;6.85;;;11.10;99.90;;;;;;5053629;28;20099;-72
2022/12/23 04:53:48;;;;;;;9.57;7.47;;;11.10;99.90;;;;;;5052559;28;20021;-72
2022/12/23 04:56:14;;;;;;;9.20;7.28;;;11.10;99.90;;;;;;5054173;28;20033;-72
2022/12/23 04:58:40;;;;;;;8.55;7.03;;;11.10;99.90;;;;;;5054053;28;20092;-72
2022/12/23 05:01:08;;;;;;;9.60;7.80;;;11.10;99.90;;;;;;5052378;28;20084;-72
2022/12/23 05:03:35;;;;;;;9.13;7.40;;;11.10;99.90;;;;;;5053225;28;20580;-72
2022/12/23 05:06:01;;;;;;;8.60;7.25;;;11.10;99.90;;;;;;5052597;28;20036;-72
2022/12/23 05:08:27;;;;;;;10.77;7.63;;;11.10;99.90;;;;;;5053515;28;20049;-71
2022/12/23 05:10:53;;;;;;;8.20;6.63;;;11.20;99.90;;;;;;5052361;28;20032;-73
2022/12/23 05:13:18;;;;;;;10.68;7.63;;;11.20;99.90;;;;;;5052376;28;20024;-72
2022/12/23 05:15:47;;;;;;;11.63;8.40;;;11.20;99.90;;;;;;5052881;28;20039;-72
2022/12/23 05:18:13;;;;;;;10.48;7.80;;;11.20;99.90;;;;;;5052650;28;20143;-72
2022/12/23 05:20:39;;;;;;;11.30;7.88;;;11.20;99.90;;;;;;5053839;28;20037;-73
2022/12/23 05:23:04;;;;;;;9.68;7.57;;;11.20;99.90;;;;;;5052080;28;20540;-72
2022/12/23 05:25:32;;;;;;;11.05;8.07;;;11.20;99.90;;;;;;5052356;28;20053;-71
2022/12/23 05:27:58;;;;;;;10.98;7.50;;;11.20;99.90;;;;;;5053470;28;20060;-71
2022/12/23 05:30:24;;;;;;;13.88;8.10;;;11.20;99.90;;;;;;5052434;28;20060;-73
2022/12/23 05:32:53;;;;;;;12.73;8.80;;;11.20;99.90;;;;;;5035600;28;20029;-71
2022/12/23 05:35:19;;;;;;;12.38;8.93;;;11.20;99.90;;;;;;5035582;28;20120;-71
2022/12/23 05:37:45;;;;;;;13.55;9.18;;;11.20;99.90;;;;;;5053570;28;20108;-71
2022/12/23 05:40:10;;;;;;;13.80;9.43;;;11.20;99.90;;;;;;5035597;28;20484;-71
2022/12/23 05:42:36;;;;;;;10.65;8.68;;;11.30;99.90;;;;;;5036053;28;20025;-72
2022/12/23 05:45:02;;;;;;;14.82;9.60;;;11.30;99.90;;;;;;5056239;28;20115;-71
2022/12/23 05:47:27;;;;;;;13.27;9.88;;;11.30;99.90;;;;;;5056434;28;20044;-71
2022/12/23 05:49:53;;;;;;;16.70;10.18;;;11.30;99.90;;;;;;5057024;28;20461;-71
2022/12/23 05:52:19;;;;;;;15.63;10.13;;;11.30;99.90;;;;;;5056367;28;20033;-72
2022/12/23 05:54:44;;;;;;;17.83;11.35;;;11.30;99.90;;;;;;5056837;28;20037;-71
2022/12/23 05:57:10;;;;;;;17.70;11.65;;;11.30;99.90;;;;;;5056100;28;20029;-71
2022/12/23 05:59:36;;;;;;;22.13;13.32;;;11.30;99.90;;;;;;5039174;28;20396;-71
2022/12/23 06:02:01;;;;;;;17.20;11.73;;;11.30;99.90;;;;;;5022828;28;20030;-71
2022/12/23 06:04:27;;;;;;;21.10;13.55;;;11.20;99.90;;;;;;5057098;28;20175;-71
2022/12/23 06:06:53;;;;;;;22.10;13.35;;;11.20;99.90;;;;;;5055799;28;20040;-71
2022/12/23 06:09:18;;;;;;;18.17;12.20;;;11.20;99.90;;;;;;5055528;28;20131;-71
2022/12/23 06:11:44;;;;;;;20.73;13.57;;;11.20;99.90;;;;;;5056809;28;20060;-72
2022/12/23 06:14:10;;;;;;;21.90;12.60;;;11.20;99.90;;;;;;5056045;28;20033;-72
2022/12/23 06:16:35;;;;;;;22.42;14.38;;;11.20;99.90;;;;;;5056260;28;20037;-72
2022/12/23 06:19:01;;;;;;;19.92;13.05;;;11.20;99.90;;;;;;5055372;28;20033;-72
2022/12/23 06:21:27;;;;;;;22.33;13.27;;;11.10;99.90;;;;;;5057216;28;20033;-72
2022/12/23 06:23:53;;;;;;;19.05;13.10;;;11.10;99.90;;;;;;5056846;28;20192;-72
2022/12/23 06:26:18;;;;;;;18.67;12.90;;;11.00;99.90;;;;;;5055442;28;20029;-73
2022/12/23 06:28:44;;;;;;;19.65;12.40;;;11.00;99.90;;;;;;5055625;28;20047;-73
2022/12/23 06:31:10;;;;;;;17.08;11.77;;;11.00;99.90;;;;;;5055919;28;20057;-72
2022/12/23 06:33:35;;;;;;;16.83;12.63;;;11.00;99.90;;;;;;5054975;28;20064;-73
2022/12/23 06:36:01;;;;;;;17.73;11.98;;;11.00;99.90;;;;;;5055105;28;20033;-73
2022/12/23 06:38:27;;;;;;;17.38;11.70;;;11.00;99.90;;;;;;5056340;28;20032;-73
2022/12/23 06:40:52;;;;;;;18.05;12.38;;;11.00;99.90;;;;;;5056008;28;20082;-73
2022/12/23 06:43:18;;;;;;;21.17;11.68;;;11.10;99.90;;;;;;5055032;28;20025;-73
2022/12/23 06:45:48;;;;;;;16.65;11.93;;;11.00;99.90;;;;;;5054999;28;20094;-74
2022/12/23 06:48:14;;;;;;;20.85;13.13;;;11.10;99.90;;;;;;5056128;28;20154;-73
2022/12/23 06:50:39;;;;;;;17.15;11.95;;;11.10;99.90;;;;;;5054743;28;20477;-73
2022/12/23 06:53:05;;;;;;;22.90;13.00;;;11.10;99.90;;;;;;5054400;28;20040;-73
2022/12/23 06:55:31;;;;;;;17.55;12.15;;;11.10;99.90;;;;;;5054665;28;20063;-73
2022/12/23 06:57:57;;;;;;;15.80;11.43;;;11.10;99.90;;;;;;5056112;28;20063;-74
2022/12/23 07:00:23;;;;;;;18.77;11.50;;;11.10;99.90;;;;;;5055945;28;20075;-73
2022/12/23 07:02:48;;;;;;;19.20;11.70;;;11.20;99.90;;;;;;5056577;28;20509;-79
2022/12/23 07:05:15;;;;;;;19.27;12.02;;;11.20;99.90;;;;;;5058091;28;20037;-76
2022/12/23 07:07:41;;;;;;;18.88;11.32;;;11.20;99.90;;;;;;5038475;28;20120;-75
2022/12/23 07:10:08;;;;;;;17.77;12.30;;;11.20;99.90;;;;;;5054363;28;20137;-74
2022/12/23 07:12:33;;;;;;;18.38;11.15;;;11.20;99.90;;;;;;5054196;28;20033;-75
2022/12/23 07:14:59;;;;;;;17.38;11.00;;;11.20;99.90;;;;;;5054962;28;20036;-78
2022/12/23 07:17:25;;;;;;;21.05;12.10;;;11.20;99.90;;;;;;5021791;28;20029;-80
2022/12/23 07:19:50;;;;;;;18.55;12.85;;;11.20;99.90;;;;;;5054957;28;20492;-80
2022/12/23 07:22:16;;;;;;;20.08;13.02;;;11.10;99.90;;;;;;5055981;28;20342;-79
2022/12/23 07:24:41;;;;;;;18.70;12.45;;;11.10;99.90;;;;;;5021611;28;20392;-79
2022/12/23 07:27:08;;;;;;;16.45;11.98;;;11.10;99.90;;;;;;5038107;28;20453;-79
2022/12/23 07:29:36;;;;;;;15.20;11.15;;;11.20;99.90;;;;;;5037810;28;20452;-80
2022/12/23 07:32:03;;;;;;;18.65;12.75;;;11.20;99.90;;;;;;5038084;28;20063;-81
2022/12/23 07:34:28;;;;;;;14.40;10.30;;;11.20;99.90;;;;;;5037475;28;20049;-75
2022/12/23 07:36:55;;;;;;;17.92;12.70;;;11.30;99.90;;;;;;5054348;28;20068;-76
2022/12/23 07:39:20;;;;;;;19.40;13.05;;;11.20;99.90;;;;;;5054117;28;20115;-79
2022/12/23 07:41:46;;;;;;;17.17;12.70;;;11.30;99.90;;;;;;5053634;28;20061;-78
2022/12/23 07:44:12;;;;;;;15.43;11.13;;;11.30;99.90;;;;;;5054961;28;20030;-78
2022/12/23 07:46:38;;;;;;;18.67;13.50;;;11.30;99.90;;;;;;5053707;28;20056;-77
2022/12/23 07:49:04;;;;;;;17.92;12.32;;;11.40;99.90;;;;;;5053905;28;20040;-77
2022/12/23 07:51:30;;;;;;;17.83;12.52;;;11.40;99.90;;;;;;5020671;28;20079;-76
2022/12/23 07:53:56;;;;;;;17.83;12.48;;;11.40;99.90;;;;;;5054440;28;20154;-78
2022/12/23 07:56:22;;;;;;;15.98;10.60;;;11.40;99.90;;;;;;5053436;28;20135;-76
2022/12/23 07:58:49;;;;;;;20.02;13.85;;;11.40;99.90;;;;;;5037035;28;20432;-77
2022/12/23 08:01:15;;;;;;;17.23;12.48;;;11.50;99.90;;;;;;5053422;28;20103;-79
2022/12/23 08:03:40;;;;;;;18.23;12.30;;;11.50;99.90;;;;;;5054391;28;20029;-78
2022/12/23 08:06:08;;;;;;;16.88;11.50;;;11.50;99.90;;;;;;5054714;28;20108;-77
2022/12/23 08:08:34;;;;;;;19.23;12.98;;;11.50;99.90;;;;;;5036708;28;20049;-78
2022/12/23 08:11:03;;;;;;;19.27;13.27;;;11.60;99.90;;;;;;5037726;28;20033;-78
2022/12/23 08:13:32;;;;;;;17.95;12.32;;;11.60;99.90;;;;;;5053091;28;20116;-79
2022/12/23 08:16:00;;;;;;;18.75;12.30;;;11.60;99.90;;;;;;5052904;28;20025;-78
2022/12/23 08:18:28;;;;;;;20.00;13.45;;;11.60;99.90;;;;;;5053471;28;20048;-78
2022/12/23 08:21:02;;;;;;;19.95;13.75;;;11.60;99.90;;;;;;5054267;28;20492;-80
2022/12/23 08:23:29;;;;;;;19.02;12.07;;;11.60;99.90;;;;;;5053920;28;20552;-79
2022/12/23 08:26:17;;;;;;;17.65;12.13;;;11.50;99.90;;;;;;5036292;28;20469;-78
2022/12/23 08:28:44;;;;;;;21.45;13.57;;;11.50;99.90;;;;;;5053036;28;20096;-79
2022/12/23 08:31:15;;;;;;;19.95;12.38;;;11.60;99.90;;;;;;5053925;28;20021;-79
2022/12/23 08:33:44;;;;;;;23.35;14.60;;;11.60;99.90;;;;;;5054286;28;20029;-77
2022/12/23 08:36:14;;;;;;;13.73;9.85;;;11.60;99.90;;;;;;5052794;28;20373;-78
2022/12/23 08:38:40;;;;;;;17.92;11.93;;;11.60;99.90;;;;;;5054373;28;20037;-78
2022/12/23 08:41:14;;;;;;;18.40;12.13;;;11.70;99.90;;;;;;5053419;28;20436;-78
2022/12/23 08:43:41;;;;;;;22.10;13.63;;;11.70;99.90;;;;;;5053094;28;20380;-78
2022/12/23 08:46:07;;;;;;;19.52;13.40;;;11.60;99.90;;;;;;5054006;28;20029;-78
2022/12/23 08:48:34;;;;;;;18.15;13.40;;;11.60;99.90;;;;;;5052704;28;20512;-77
2022/12/23 08:51:05;;;;;;;17.13;12.25;;;11.50;99.90;;;;;;5053927;28;20533;-75
2022/12/23 08:53:32;;;;;;;18.27;11.52;;;11.50;99.90;;;;;;5052634;28;20025;-77
2022/12/23 08:56:05;;;;;;;16.77;12.05;;;11.50;99.90;;;;;;5036067;28;20041;-77
2022/12/23 08:58:34;;;;;;;;;;;11.50;99.90;;;;;;5054785;28;20033;-78
2022/12/23 09:01:03;;;;;;;15.43;11.13;;;11.50;99.90;;;;;;5053174;28;20431;-78
2022/12/23 09:03:29;;;;;;;15.95;11.25;;;11.60;99.90;;;;;;5052765;28;20597;-78
2022/12/23 09:05:55;;;;;;;20.52;13.35;;;11.60;99.90;;;;;;5035838;28;20056;-78
2022/12/23 09:08:20;;;;;;;19.70;13.70;;;11.60;99.90;;;;;;5019208;28;20111;-78
2022/12/23 09:10:46;;;;;;;19.02;12.45;;;11.60;99.90;;;;;;5053697;28;20025;-78
2022/12/23 09:13:12;;;;;;;17.20;12.07;;;11.60;99.90;;;;;;5052133;28;20033;-78
2022/12/23 09:15:44;;;;;;;17.20;11.45;;;11.60;99.90;;;;;;5052297;28;20474;-76
2022/12/23 09:18:11;;;;;;;15.82;11.23;;;11.60;99.90;;;;;;5051349;28;20075;-76
2022/12/23 09:20:37;;;;;;;18.27;12.43;;;11.70;99.90;;;;;;5052697;28;20037;-77
2022/12/23 09:23:04;;;;;;;16.10;12.48;;;11.70;99.90;;;;;;5053795;28;20469;-76
2022/12/23 09:25:31;;;;;;;20.33;12.02;;;11.60;99.90;;;;;;5052986;28;20029;-77
2022/12/23 09:27:57;;;;;;;19.25;12.43;;;11.70;99.90;;;;;;5052992;28;20111;-77
2022/12/23 09:30:23;;;;;;;20.35;13.10;;;11.70;99.90;;;;;;5052141;28;20405;-78
2022/12/23 09:32:49;;;;;;;18.90;13.20;;;11.70;99.90;;;;;;5051900;28;20044;-77
2022/12/23 09:35:14;;;;;;;22.80;13.55;;;11.70;99.90;;;;;;5052324;28;20041;-78
2022/12/23 09:37:40;;;;;;;18.65;12.88;;;11.70;99.90;;;;;;5051626;28;20040;-78
2022/12/23 09:40:09;;;;;;;19.88;12.93;;;11.70;99.90;;;;;;5034928;28;20040;-77
2022/12/23 09:43:02;;;;;;;21.85;13.52;;;11.70;99.90;;;;;;5051787;28;20131;-77
2022/12/23 09:45:47;;;;;;;20.35;13.30;;;11.80;99.90;;;;;;5051848;28;20488;-77
2022/12/23 09:48:18;;;;;;;23.17;14.02;;;11.80;99.90;;;;;;5052767;28;20109;-78
2022/12/23 09:50:45;;;;;;;24.25;15.75;;;11.80;99.90;;;;;;5051681;28;20025;-79
2022/12/23 09:53:15;;;;;;;22.55;14.25;;;11.80;99.90;;;;;;5035216;28;20119;-75
2022/12/23 09:56:07;;;;;;;28.25;15.05;;;11.80;99.90;;;;;;5051614;28;20060;-75
2022/12/23 09:58:55;;;;;;;24.65;14.93;;;11.80;99.90;;;;;;5051930;28;20025;-76
2022/12/23 10:01:30;;;;;;;25.27;14.55;;;11.80;99.90;;;;;;5052631;28;20037;-75
2022/12/23 10:04:04;;;;;;;21.50;11.85;;;11.80;99.90;;;;;;5051689;28;20044;-75
2022/12/23 10:06:32;;;;;;;25.67;14.45;;;11.80;99.90;;;;;;5052397;28;20027;-76
2022/12/23 10:09:01;;;;;;;25.92;14.82;;;11.90;99.90;;;;;;5050974;28;20051;-76
2022/12/23 10:11:43;;;;;;;23.52;13.90;;;11.90;99.90;;;;;;5051596;28;20025;-74
2022/12/23 10:14:27;;;;;;;25.88;14.85;;;11.90;99.90;;;;;;5052622;28;20051;-74
2022/12/23 10:17:01;;;;;;;21.10;11.07;;;11.90;99.90;;;;;;5051544;28;20029;-77
2022/12/23 10:19:47;;;;;;;28.33;15.40;;;11.90;99.90;;;;;;5052822;28;20108;-77
2022/12/23 10:22:23;;;;;;;31.48;17.25;;;11.90;99.90;;;;;;5034654;28;20063;-77
2022/12/23 10:24:49;;;;;;;31.48;16.63;;;11.70;99.90;;;;;;5051290;28;20083;-76
2022/12/23 10:27:36;;;;;;;31.05;17.33;;;11.70;99.90;;;;;;5034498;28;20033;-76
2022/12/23 10:30:07;;;;;;;31.08;16.95;;;11.70;99.90;;;;;;5052955;28;20458;-76
2022/12/23 10:32:32;;;;;;;28.85;17.45;;;11.70;99.90;;;;;;5054684;28;20028;-76
2022/12/23 10:35:11;;;;;;;38.53;19.88;;;11.70;99.90;;;;;;5056137;28;20021;-76
2022/12/23 10:37:54;;;;;;;40.45;21.13;;;11.70;99.90;;;;;;5056316;28;20029;-76
2022/12/23 10:41:01;;;;;;;37.20;20.58;;;11.60;99.90;;;;;;5054706;28;20115;-76
2022/12/23 10:43:48;;;;;;;32.53;18.85;;;11.60;99.90;;;;;;4959489;28;20026;-76
2022/12/23 10:46:24;;;;;;;35.83;19.90;;;11.70;99.90;;;;;;5054337;28;20037;-76
2022/12/23 10:49:00;;;;;;;41.85;21.55;;;11.70;99.90;;;;;;5055563;28;20029;-77
2022/12/23 10:51:47;;;;;;;36.95;20.48;;;11.60;99.90;;;;;;5055556;28;20029;-76
2022/12/23 10:54:22;;;;;;;47.22;23.40;;;11.60;99.90;;;;;;5056513;28;20045;-76
2022/12/23 10:56:48;;;;;;;49.47;25.52;;;11.60;99.90;;;;;;5055208;28;20070;-75
2022/12/23 10:59:16;;;;;;;47.38;26.10;;;11.60;99.90;;;;;;5037745;28;20029;-76
2022/12/23 11:01:46;;;;;;;48.67;26.90;;;11.60;99.90;;;;;;5054647;28;20078;-76
2022/12/23 11:04:18;;;;;;;42.17;24.58;;;11.60;99.90;;;;;;5055566;28;20057;-76
2022/12/23 11:06:49;;;;;;;35.70;21.67;;;11.70;99.90;;;;;;5055670;28;20029;-76
2022/12/23 11:09:20;;;;;;;38.40;22.95;;;11.70;99.90;;;;;;5054876;28;20075;-74
2022/12/23 11:12:05;;;;;;;41.08;23.70;;;11.70;99.90;;;;;;5054435;28;20021;-75
2022/12/23 11:14:36;;;;;;;41.92;24.77;;;11.70;99.90;;;;;;5055032;28;20025;-75
2022/12/23 11:17:02;;;;;;;43.80;25.52;;;11.70;99.90;;;;;;5054023;28;20021;-76
2022/12/23 11:19:28;;;;;;;43.85;24.30;;;11.70;99.90;;;;;;5055104;28;20075;-75
2022/12/23 11:21:58;;;;;;;38.67;21.98;;;11.70;99.90;;;;;;5038987;28;20033;-76
2022/12/23 11:24:26;;;;;;;39.05;22.88;;;11.70;99.90;;;;;;5053686;28;20021;-76
2022/12/23 11:27:01;;;;;;;39.00;22.75;;;11.60;99.90;;;;;;5037990;28;20059;-77
2022/12/23 11:29:38;;;;;;;36.78;22.92;;;11.60;99.90;;;;;;5053777;28;20060;-78
2022/12/23 11:32:17;;;;;;;39.15;21.92;;;11.60;99.90;;;;;;5054069;28;20123;-78
2022/12/23 11:34:45;;;;;;;39.92;22.38;;;11.70;99.90;;;;;;5055132;28;20029;-79
2022/12/23 11:37:41;;;;;;;38.25;23.08;;;11.70;99.90;;;;;;5053981;28;20072;-78
2022/12/23 11:40:23;;;;;;;38.38;21.90;;;11.70;99.90;;;;;;5054862;28;20029;-76
2022/12/23 11:42:55;;;;;;;38.38;22.20;;;11.80;99.90;;;;;;5054969;28;20028;-75
2022/12/23 11:45:25;;;;;;;41.88;23.75;;;11.80;99.90;;;;;;5054010;28;20032;-75
2022/12/23 11:47:51;;;;;;;43.47;25.23;;;11.80;99.90;;;;;;5054563;28;20036;-75
2022/12/23 11:50:26;;;;;;;51.72;28.85;;;11.80;99.90;;;;;;5053433;28;20121;-75
2022/12/23 11:53:02;;;;;;;49.25;27.42;;;11.80;99.90;;;;;;5053403;28;20082;-76
2022/12/23 11:55:31;;;;;;;51.20;28.70;;;11.80;99.90;;;;;;5054608;28;20524;-74
2022/12/23 11:57:59;;;;;;;49.47;27.75;;;11.80;99.90;;;;;;5054561;28;20033;-74
2022/12/23 12:00:40;;;;;;;49.17;29.10;;;11.80;99.90;;;;;;5054624;28;20060;-74
2022/12/23 12:03:14;;;;;;;48.35;28.58;;;11.80;99.90;;;;;;5053240;28;20032;-74
2022/12/23 12:05:48;;;;;;;45.38;26.90;;;11.80;99.90;;;;;;5038434;28;20029;-73
2022/12/23 12:08:18;;;;;;;57.00;29.67;;;11.80;99.90;;;;;;5053438;28;20072;-74
2022/12/23 12:10:44;;;;;;;45.92;26.75;;;11.80;99.90;;;;;;5054580;28;20074;-75
2022/12/23 12:13:24;;;;;;;47.10;28.00;;;11.80;99.90;;;;;;5053254;28;20465;-76
2022/12/23 12:16:34;;;;;;;48.95;28.88;;;11.80;99.90;;;;;;5054161;28;20025;-75
2022/12/23 12:19:19;;;;;;;53.28;29.58;;;11.80;99.90;;;;;;5053667;28;20116;-75
2022/12/23 12:21:48;;;;;;;57.13;30.80;;;11.80;99.90;;;;;;5040844;28;20044;-75
2022/12/23 12:24:24;;;;;;;49.50;27.42;;;11.70;99.90;;;;;;5054350;28;20027;-75
2022/12/23 12:26:59;;;;;;;49.38;28.75;;;11.70;99.90;;;;;;5053810;28;20021;-76
2022/12/23 12:29:34;;;;;;;43.25;25.77;;;11.80;99.90;;;;;;5052965;28;20036;-75
2022/12/23 12:32:01;;;;;;;45.25;26.23;;;11.80;99.90;;;;;;5053145;28;20027;-76
2022/12/23 12:34:44;;;;;;;40.35;24.95;;;11.80;99.90;;;;;;5036790;28;20033;-75
2022/12/23 12:37:39;;;;;;;43.63;26.02;;;11.80;99.90;;;;;;5054285;28;20029;-75
2022/12/23 12:40:11;;;;;;;43.35;24.80;;;11.80;99.90;;;;;;5052661;28;20132;-75
2022/12/23 12:42:39;;;;;;;46.30;27.48;;;11.80;99.90;;;;;;5053435;28;20606;-75
2022/12/23 12:45:11;;;;;;;49.55;27.98;;;11.80;99.90;;;;;;5053469;28;20103;-78
2022/12/23 12:48:03;;;;;;;47.33;28.27;;;11.80;99.90;;;;;;5052914;28;20025;-76
2022/12/23 12:50:32;;;;;;;44.40;26.38;;;11.80;99.90;;;;;;5044282;28;20107;-79
2022/12/23 12:53:14;;;;;;;41.58;25.05;;;11.80;99.90;;;;;;5061929;28;20029;-81
2022/12/23 12:55:45;;;;;;;39.35;24.77;;;11.80;99.90;;;;;;5062458;28;20035;-79
2022/12/23 12:58:29;;;;;;;33.72;22.88;;;11.90;99.90;;;;;;5056393;28;20029;-80
2022/12/23 13:01:04;;;;;;;34.17;22.35;;;11.90;99.90;;;;;;5054504;28;20102;-79
2022/12/23 13:03:39;;;;;;;34.92;21.50;;;11.80;99.90;;;;;;5055443;28;20025;-79
2022/12/23 13:06:35;;;;;;;34.80;20.75;;;11.80;99.90;;;;;;5054578;28;20029;-78
2022/12/23 13:09:39;;;;;;;33.00;21.23;;;11.80;99.90;;;;;;5053208;28;20049;-79
2022/12/23 13:12:20;;;;;;;33.08;20.92;;;11.80;99.90;;;;;;5056104;28;20024;-79
2022/12/23 13:15:06;;;;;;;28.80;18.48;;;11.70;99.90;;;;;;5052808;28;20040;-79
2022/12/23 13:17:57;;;;;;;24.27;18.30;;;11.70;99.90;;;;;;5039657;28;20108;-79
2022/12/23 13:20:49;;;;;;;31.30;18.58;;;11.70;99.90;;;;;;5052658;28;20124;-78
2022/12/23 13:23:21;;;;;;;28.50;18.63;;;11.70;99.90;;;;;;5054411;28;20070;-79